sensor_id;sensor_type;location;lat;lon;timestamp;pressure;altitude;pressure_sealevel;temperature;humidity
75497;BME280;64074;47.540;19.072;2023-06-04T00:00:42;100834.59;;;16.22;48.01
75497;BME280;64074;47.540;19.072;2023-06-04T00:03:46;100830.56;;;16.28;48.25
75497;BME280;64074;47.540;19.072;2023-06-04T00:06:49;100841.50;;;16.28;47.73
75497;BME280;64074;47.540;19.072;2023-06-04T00:09:53;100845.84;;;16.29;48.27
75497;BME280;64074;47.540;19.072;2023-06-04T00:12:56;100839.72;;;16.24;47.41
75497;BME280;64074;47.540;19.072;2023-06-04T00:15:59;100845.03;;;16.12;48.86
75497;BME280;64074;47.540;19.072;2023-06-04T00:19:02;100838.94;;;16.23;48.32
75497;BME280;64074;47.540;19.072;2023-06-04T00:22:05;100830.22;;;16.04;48.01
75497;BME280;64074;47.540;19.072;2023-06-04T00:25:10;100826.22;;;16.19;47.38
75497;BME280;64074;47.540;19.072;2023-06-04T00:28:12;100829.25;;;16.09;47.07
75497;BME280;64074;47.540;19.072;2023-06-04T00:31:15;100828.31;;;16.13;46.38
75497;BME280;64074;47.540;19.072;2023-06-04T00:34:18;100839.31;;;15.65;47.92
75497;BME280;64074;47.540;19.072;2023-06-04T00:37:22;100833.88;;;15.43;49.54
75497;BME280;64074;47.540;19.072;2023-06-04T00:40:25;100822.66;;;15.53;49.19
75497;BME280;64074;47.540;19.072;2023-06-04T00:43:28;100822.59;;;15.75;48.98
75497;BME280;64074;47.540;19.072;2023-06-04T00:46:35;100825.81;;;15.77;48.73
75497;BME280;64074;47.540;19.072;2023-06-04T00:49:41;100831.75;;;15.71;49.20
75497;BME280;64074;47.540;19.072;2023-06-04T00:52:45;100824.84;;;15.73;48.77
75497;BME280;64074;47.540;19.072;2023-06-04T00:55:48;100827.59;;;15.73;48.31
75497;BME280;64074;47.540;19.072;2023-06-04T00:58:51;100818.41;;;15.69;48.41
75497;BME280;64074;47.540;19.072;2023-06-04T01:02:00;100825.66;;;15.74;48.16
75497;BME280;64074;47.540;19.072;2023-06-04T01:08:15;100825.38;;;15.92;47.62
75497;BME280;64074;47.540;19.072;2023-06-04T01:11:17;100828.38;;;15.74;47.76
75497;BME280;64074;47.540;19.072;2023-06-04T01:14:21;100833.53;;;15.66;48.79
75497;BME280;64074;47.540;19.072;2023-06-04T01:17:34;100826.78;;;15.73;49.25
75497;BME280;64074;47.540;19.072;2023-06-04T01:20:43;100830.63;;;15.72;49.89
75497;BME280;64074;47.540;19.072;2023-06-04T01:23:49;100830.06;;;16.00;49.03
75497;BME280;64074;47.540;19.072;2023-06-04T01:27:04;100829.25;;;16.09;48.68
75497;BME280;64074;47.540;19.072;2023-06-04T01:30:09;100823.44;;;15.93;49.11
75497;BME280;64074;47.540;19.072;2023-06-04T01:33:15;100819.09;;;15.92;48.75
75497;BME280;64074;47.540;19.072;2023-06-04T01:36:19;100822.00;;;16.04;48.17
75497;BME280;64074;47.540;19.072;2023-06-04T01:39:21;100821.69;;;15.97;47.99
75497;BME280;64074;47.540;19.072;2023-06-04T01:42:24;100822.97;;;16.08;46.58
75497;BME280;64074;47.540;19.072;2023-06-04T01:45:28;100823.44;;;16.02;46.29
75497;BME280;64074;47.540;19.072;2023-06-04T01:48:31;100821.72;;;16.14;46.02
75497;BME280;64074;47.540;19.072;2023-06-04T01:51:37;100820.09;;;16.13;46.65
75497;BME280;64074;47.540;19.072;2023-06-04T01:54:40;100816.88;;;16.20;46.86
75497;BME280;64074;47.540;19.072;2023-06-04T01:57:44;100815.75;;;16.12;47.63
75497;BME280;64074;47.540;19.072;2023-06-04T02:00:47;100812.66;;;16.05;47.75
75497;BME280;64074;47.540;19.072;2023-06-04T02:03:52;100821.69;;;15.97;48.48
75497;BME280;64074;47.540;19.072;2023-06-04T02:06:55;100822.97;;;15.91;48.04
75497;BME280;64074;47.540;19.072;2023-06-04T02:09:59;100827.00;;;15.93;47.67
75497;BME280;64074;47.540;19.072;2023-06-04T02:13:02;100825.69;;;15.99;47.58
75497;BME280;64074;47.540;19.072;2023-06-04T02:16:06;100836.50;;;16.22;46.82
75497;BME280;64074;47.540;19.072;2023-06-04T02:19:09;100834.25;;;16.33;47.81
75497;BME280;64074;47.540;19.072;2023-06-04T02:22:17;100837.31;;;16.31;47.64
75497;BME280;64074;47.540;19.072;2023-06-04T02:25:24;100836.81;;;16.03;48.79
75497;BME280;64074;47.540;19.072;2023-06-04T02:28:26;100841.31;;;15.99;47.89
75497;BME280;64074;47.540;19.072;2023-06-04T02:31:30;100846.06;;;15.76;49.24
75497;BME280;64074;47.540;19.072;2023-06-04T02:34:33;100843.88;;;15.56;49.77
75497;BME280;64074;47.540;19.072;2023-06-04T02:37:39;100841.41;;;15.68;50.32
75497;BME280;64074;47.540;19.072;2023-06-04T02:40:43;100841.75;;;15.75;50.92
75497;BME280;64074;47.540;19.072;2023-06-04T02:43:46;100847.19;;;15.75;51.35
75497;BME280;64074;47.540;19.072;2023-06-04T02:46:49;100843.69;;;15.83;52.13
75497;BME280;64074;47.540;19.072;2023-06-04T02:49:52;100839.50;;;15.77;52.26
75497;BME280;64074;47.540;19.072;2023-06-04T02:52:55;100839.31;;;15.74;51.73
75497;BME280;64074;47.540;19.072;2023-06-04T02:55:58;100843.16;;;15.33;52.24
75497;BME280;64074;47.540;19.072;2023-06-04T02:59:01;100842.22;;;15.68;50.88
75497;BME280;64074;47.540;19.072;2023-06-04T03:02:05;100838.50;;;15.73;51.59
75497;BME280;64074;47.540;19.072;2023-06-04T03:05:10;100840.13;;;15.74;51.97
75497;BME280;64074;47.540;19.072;2023-06-04T03:08:13;100837.06;;;15.76;52.13
75497;BME280;64074;47.540;19.072;2023-06-04T03:11:17;100840.44;;;15.73;52.22
75497;BME280;64074;47.540;19.072;2023-06-04T03:14:22;100838.81;;;15.63;52.84
75497;BME280;64074;47.540;19.072;2023-06-04T03:17:26;100842.84;;;15.65;52.63
75497;BME280;64074;47.540;19.072;2023-06-04T03:20:29;100835.50;;;15.44;52.74
75497;BME280;64074;47.540;19.072;2023-06-04T03:23:33;100841.88;;;15.61;52.30
75497;BME280;64074;47.540;19.072;2023-06-04T03:26:36;100840.22;;;15.60;52.74
75497;BME280;64074;47.540;19.072;2023-06-04T03:29:39;100838.19;;;15.66;52.58
75497;BME280;64074;47.540;19.072;2023-06-04T03:32:43;100852.97;;;15.65;51.56
75497;BME280;64074;47.540;19.072;2023-06-04T03:35:49;100847.34;;;15.70;51.69
75497;BME280;64074;47.540;19.072;2023-06-04T03:38:52;100854.16;;;15.50;51.96
75497;BME280;64074;47.540;19.072;2023-06-04T03:41:55;100861.09;;;15.56;51.86
75497;BME280;64074;47.540;19.072;2023-06-04T03:45:00;100858.88;;;15.58;51.75
75497;BME280;64074;47.540;19.072;2023-06-04T03:48:04;100866.97;;;15.63;51.84
75497;BME280;64074;47.540;19.072;2023-06-04T03:51:11;100860.75;;;15.49;52.82
75497;BME280;64074;47.540;19.072;2023-06-04T03:54:15;100870.19;;;15.74;53.06
75497;BME280;64074;47.540;19.072;2023-06-04T03:57:23;100877.75;;;15.68;52.95
75497;BME280;64074;47.540;19.072;2023-06-04T04:00:27;100872.94;;;15.74;52.82
75497;BME280;64074;47.540;19.072;2023-06-04T04:03:34;100873.50;;;16.02;53.21
75497;BME280;64074;47.540;19.072;2023-06-04T04:06:38;100870.44;;;15.95;54.12
75497;BME280;64074;47.540;19.072;2023-06-04T04:09:41;100867.31;;;15.79;56.00
75497;BME280;64074;47.540;19.072;2023-06-04T04:12:43;100879.44;;;16.04;55.27
75497;BME280;64074;47.540;19.072;2023-06-04T04:15:47;100880.22;;;15.87;55.45
75497;BME280;64074;47.540;19.072;2023-06-04T04:18:55;100889.59;;;15.33;55.27
75497;BME280;64074;47.540;19.072;2023-06-04T04:21:58;100889.16;;;15.39;54.78
75497;BME280;64074;47.540;19.072;2023-06-04T04:25:02;100896.09;;;15.77;53.11
75497;BME280;64074;47.540;19.072;2023-06-04T04:28:07;100898.41;;;15.92;52.92
75497;BME280;64074;47.540;19.072;2023-06-04T04:31:11;100893.75;;;16.01;52.00
75497;BME280;64074;47.540;19.072;2023-06-04T04:34:14;100891.56;;;16.12;52.81
75497;BME280;64074;47.540;19.072;2023-06-04T04:37:17;100899.28;;;16.18;53.07
75497;BME280;64074;47.540;19.072;2023-06-04T04:40:24;100901.97;;;16.01;55.25
75497;BME280;64074;47.540;19.072;2023-06-04T04:43:34;100900.75;;;15.67;57.74
75497;BME280;64074;47.540;19.072;2023-06-04T04:46:44;100895.50;;;15.88;55.69
75497;BME280;64074;47.540;19.072;2023-06-04T04:49:47;100896.06;;;16.25;55.06
75497;BME280;64074;47.540;19.072;2023-06-04T04:52:52;100896.63;;;16.70;52.63
75497;BME280;64074;47.540;19.072;2023-06-04T04:55:55;100897.09;;;16.89;50.82
75497;BME280;64074;47.540;19.072;2023-06-04T04:58:58;100891.59;;;16.98;50.17
75497;BME280;64074;47.540;19.072;2023-06-04T05:02:01;100892.44;;;16.90;49.97
75497;BME280;64074;47.540;19.072;2023-06-04T05:05:05;100896.03;;;17.29;49.87
75497;BME280;64074;47.540;19.072;2023-06-04T05:08:08;100894.31;;;17.71;48.53
75497;BME280;64074;47.540;19.072;2023-06-04T05:11:15;100898.22;;;17.52;48.63
75497;BME280;64074;47.540;19.072;2023-06-04T05:14:19;100894.50;;;17.57;47.83
75497;BME280;64074;47.540;19.072;2023-06-04T05:17:23;100897.09;;;17.53;46.83
75497;BME280;64074;47.540;19.072;2023-06-04T05:20:36;100899.16;;;17.65;44.93
75497;BME280;64074;47.540;19.072;2023-06-04T05:23:43;100906.91;;;18.01;42.90
75497;BME280;64074;47.540;19.072;2023-06-04T05:26:53;100909.28;;;18.11;41.59
75497;BME280;64074;47.540;19.072;2023-06-04T05:29:57;100919.03;;;18.00;41.31
75497;BME280;64074;47.540;19.072;2023-06-04T05:33:01;100915.78;;;17.69;46.45
75497;BME280;64074;47.540;19.072;2023-06-04T05:36:05;100928.19;;;17.11;49.50
75497;BME280;64074;47.540;19.072;2023-06-04T05:39:13;100924.97;;;16.91;50.48
75497;BME280;64074;47.540;19.072;2023-06-04T05:42:31;100921.22;;;17.05;50.18
75497;BME280;64074;47.540;19.072;2023-06-04T05:45:35;100924.25;;;17.38;48.35
75497;BME280;64074;47.540;19.072;2023-06-04T05:48:38;100922.97;;;17.35;48.63
75497;BME280;64074;47.540;19.072;2023-06-04T05:51:42;100918.44;;;17.31;48.80
75497;BME280;64074;47.540;19.072;2023-06-04T05:54:46;100927.09;;;17.67;47.71
75497;BME280;64074;47.540;19.072;2023-06-04T05:57:50;100927.38;;;17.74;46.53
75497;BME280;64074;47.540;19.072;2023-06-04T06:00:54;100927.38;;;17.66;46.08
75497;BME280;64074;47.540;19.072;2023-06-04T06:03:57;100921.28;;;17.69;46.61
75497;BME280;64074;47.540;19.072;2023-06-04T06:07:02;100917.19;;;18.13;45.96
75497;BME280;64074;47.540;19.072;2023-06-04T06:10:05;100920.91;;;18.38;45.19
75497;BME280;64074;47.540;19.072;2023-06-04T06:13:10;100916.13;;;18.26;42.93
75497;BME280;64074;47.540;19.072;2023-06-04T06:16:13;100920.81;;;18.26;43.08
75497;BME280;64074;47.540;19.072;2023-06-04T06:19:16;100928.53;;;18.53;42.53
75497;BME280;64074;47.540;19.072;2023-06-04T06:22:19;100926.81;;;18.49;43.85
75497;BME280;64074;47.540;19.072;2023-06-04T06:25:22;100928.31;;;18.67;43.58
75497;BME280;64074;47.540;19.072;2023-06-04T06:28:39;100920.53;;;18.90;42.86
75497;BME280;64074;47.540;19.072;2023-06-04T06:31:42;100919.22;;;18.25;42.76
75497;BME280;64074;47.540;19.072;2023-06-04T06:34:47;100923.75;;;18.21;42.05
75497;BME280;64074;47.540;19.072;2023-06-04T06:37:50;100923.00;;;18.41;42.88
75497;BME280;64074;47.540;19.072;2023-06-04T06:40:53;100927.16;;;18.89;42.26
75497;BME280;64074;47.540;19.072;2023-06-04T06:43:56;100918.19;;;18.80;41.53
75497;BME280;64074;47.540;19.072;2023-06-04T06:46:59;100930.41;;;18.70;39.57
75497;BME280;64074;47.540;19.072;2023-06-04T06:50:02;100931.88;;;18.88;39.70
75497;BME280;64074;47.540;19.072;2023-06-04T06:53:05;100935.69;;;19.08;40.45
75497;BME280;64074;47.540;19.072;2023-06-04T06:56:08;100949.28;;;18.92;40.25
75497;BME280;64074;47.540;19.072;2023-06-04T06:59:10;100945.44;;;19.39;40.14
75497;BME280;64074;47.540;19.072;2023-06-04T07:02:14;100952.97;;;18.96;39.77
75497;BME280;64074;47.540;19.072;2023-06-04T07:05:18;100953.56;;;19.02;39.93
75497;BME280;64074;47.540;19.072;2023-06-04T07:08:21;100962.81;;;18.77;39.88
75497;BME280;64074;47.540;19.072;2023-06-04T07:11:24;100957.31;;;19.30;39.46
75497;BME280;64074;47.540;19.072;2023-06-04T07:14:29;100965.19;;;18.87;39.41
75497;BME280;64074;47.540;19.072;2023-06-04T07:17:32;100966.69;;;19.17;39.10
75497;BME280;64074;47.540;19.072;2023-06-04T07:20:35;100960.38;;;19.17;39.96
75497;BME280;64074;47.540;19.072;2023-06-04T07:23:39;100957.69;;;19.74;38.95
75497;BME280;64074;47.540;19.072;2023-06-04T07:26:42;100953.94;;;20.03;38.35
75497;BME280;64074;47.540;19.072;2023-06-04T07:29:45;100955.31;;;19.85;37.61
75497;BME280;64074;47.540;19.072;2023-06-04T07:32:48;100955.88;;;19.90;37.24
75497;BME280;64074;47.540;19.072;2023-06-04T07:35:52;100946.59;;;20.19;36.27
75497;BME280;64074;47.540;19.072;2023-06-04T07:38:55;100958.75;;;20.06;35.97
75497;BME280;64074;47.540;19.072;2023-06-04T07:41:58;100968.03;;;19.89;37.23
75497;BME280;64074;47.540;19.072;2023-06-04T07:45:03;100957.91;;;19.69;36.38
75497;BME280;64074;47.540;19.072;2023-06-04T07:48:05;100953.00;;;20.23;35.70
75497;BME280;64074;47.540;19.072;2023-06-04T07:51:08;100947.03;;;20.58;35.12
75497;BME280;64074;47.540;19.072;2023-06-04T07:54:11;100955.63;;;20.56;34.74
75497;BME280;64074;47.540;19.072;2023-06-04T07:57:16;100958.00;;;20.82;34.23
75497;BME280;64074;47.540;19.072;2023-06-04T08:00:20;100968.38;;;21.01;34.25
75497;BME280;64074;47.540;19.072;2023-06-04T08:03:23;100967.88;;;21.11;33.86
75497;BME280;64074;47.540;19.072;2023-06-04T08:06:27;100963.50;;;21.66;33.01
75497;BME280;64074;47.540;19.072;2023-06-04T08:09:31;100962.28;;;21.36;33.31
75497;BME280;64074;47.540;19.072;2023-06-04T08:12:34;100964.47;;;21.74;32.78
75497;BME280;64074;47.540;19.072;2023-06-04T08:15:37;100958.59;;;21.91;32.82
75497;BME280;64074;47.540;19.072;2023-06-04T08:18:40;100953.78;;;22.04;32.83
75497;BME280;64074;47.540;19.072;2023-06-04T08:21:43;100959.56;;;22.30;33.10
75497;BME280;64074;47.540;19.072;2023-06-04T08:24:47;100954.81;;;22.47;31.95
75497;BME280;64074;47.540;19.072;2023-06-04T08:27:50;100965.31;;;22.76;32.30
75497;BME280;64074;47.540;19.072;2023-06-04T08:30:53;100968.59;;;22.62;31.63
75497;BME280;64074;47.540;19.072;2023-06-04T08:33:56;100965.25;;;22.37;31.18
75497;BME280;64074;47.540;19.072;2023-06-04T08:36:59;100961.09;;;22.63;31.24
75497;BME280;64074;47.540;19.072;2023-06-04T08:40:02;100962.44;;;21.87;31.81
75497;BME280;64074;47.540;19.072;2023-06-04T08:43:07;100958.56;;;22.73;31.13
75497;BME280;64074;47.540;19.072;2023-06-04T08:46:11;100952.34;;;22.96;30.61
75497;BME280;64074;47.540;19.072;2023-06-04T08:49:15;100958.31;;;23.17;29.78
75497;BME280;64074;47.540;19.072;2023-06-04T08:52:19;100947.22;;;23.37;29.64
75497;BME280;64074;47.540;19.072;2023-06-04T08:55:24;100951.66;;;23.02;30.50
75497;BME280;64074;47.540;19.072;2023-06-04T08:58:30;100944.22;;;22.68;30.50
75497;BME280;64074;47.540;19.072;2023-06-04T09:01:35;100951.19;;;22.62;31.02
75497;BME280;64074;47.540;19.072;2023-06-04T09:04:40;100948.00;;;22.79;30.97
75497;BME280;64074;47.540;19.072;2023-06-04T09:07:43;100951.78;;;22.71;30.75
75497;BME280;64074;47.540;19.072;2023-06-04T09:10:46;100955.81;;;22.38;30.93
75497;BME280;64074;47.540;19.072;2023-06-04T09:13:58;100958.88;;;22.53;29.90
75497;BME280;64074;47.540;19.072;2023-06-04T09:17:02;100950.75;;;22.79;30.41
75497;BME280;64074;47.540;19.072;2023-06-04T09:20:05;100954.84;;;22.66;29.66
75497;BME280;64074;47.540;19.072;2023-06-04T09:23:14;100960.25;;;22.97;30.66
75497;BME280;64074;47.540;19.072;2023-06-04T09:26:18;100952.91;;;22.51;29.56
75497;BME280;64074;47.540;19.072;2023-06-04T09:29:21;100961.06;;;23.17;30.17
75497;BME280;64074;47.540;19.072;2023-06-04T09:32:26;100950.38;;;22.96;28.78
75497;BME280;64074;47.540;19.072;2023-06-04T09:35:30;100958.03;;;22.84;28.88
75497;BME280;64074;47.540;19.072;2023-06-04T09:38:36;100962.00;;;23.25;28.63
75497;BME280;64074;47.540;19.072;2023-06-04T09:41:41;100955.31;;;23.68;28.79
75497;BME280;64074;47.540;19.072;2023-06-04T09:44:44;100951.03;;;23.51;28.64
75497;BME280;64074;47.540;19.072;2023-06-04T09:47:51;100954.94;;;23.92;28.19
75497;BME280;64074;47.540;19.072;2023-06-04T09:50:54;100954.81;;;23.85;28.33
75497;BME280;64074;47.540;19.072;2023-06-04T09:54:01;100946.72;;;24.00;28.67
75497;BME280;64074;47.540;19.072;2023-06-04T09:57:16;100957.34;;;23.94;28.27
75497;BME280;64074;47.540;19.072;2023-06-04T10:00:21;100946.00;;;24.03;28.92
75497;BME280;64074;47.540;19.072;2023-06-04T10:03:25;100950.09;;;23.86;27.71
75497;BME280;64074;47.540;19.072;2023-06-04T10:06:34;100950.59;;;24.18;27.57
75497;BME280;64074;47.540;19.072;2023-06-04T10:09:39;100958.25;;;23.79;28.48
75497;BME280;64074;47.540;19.072;2023-06-04T10:12:56;100961.09;;;23.59;28.22
75497;BME280;64074;47.540;19.072;2023-06-04T10:16:03;100954.53;;;23.48;28.84
75497;BME280;64074;47.540;19.072;2023-06-04T10:19:07;100960.69;;;23.38;28.74
75497;BME280;64074;47.540;19.072;2023-06-04T10:22:11;100965.84;;;23.82;29.18
75497;BME280;64074;47.540;19.072;2023-06-04T10:25:15;100955.22;;;23.42;29.21
75497;BME280;64074;47.540;19.072;2023-06-04T10:28:22;100956.63;;;23.13;29.39
75497;BME280;64074;47.540;19.072;2023-06-04T10:31:25;100955.84;;;22.77;30.19
75497;BME280;64074;47.540;19.072;2023-06-04T10:34:30;100957.88;;;22.96;30.15
75497;BME280;64074;47.540;19.072;2023-06-04T10:37:33;100958.03;;;22.84;30.12
75497;BME280;64074;47.540;19.072;2023-06-04T10:40:37;100968.50;;;22.78;29.99
75497;BME280;64074;47.540;19.072;2023-06-04T10:43:40;100960.63;;;22.41;30.14
75497;BME280;64074;47.540;19.072;2023-06-04T10:46:43;100962.16;;;23.13;29.41
75497;BME280;64074;47.540;19.072;2023-06-04T10:49:49;100961.28;;;23.70;28.66
75497;BME280;64074;47.540;19.072;2023-06-04T10:52:54;100958.00;;;24.10;28.49
75497;BME280;64074;47.540;19.072;2023-06-04T10:55:58;100951.75;;;23.48;28.92
75497;BME280;64074;47.540;19.072;2023-06-04T10:59:12;100956.59;;;23.97;27.90
75497;BME280;64074;47.540;19.072;2023-06-04T11:02:16;100950.78;;;24.55;27.87
75497;BME280;64074;47.540;19.072;2023-06-04T11:05:19;100953.31;;;24.14;27.62
75497;BME280;64074;47.540;19.072;2023-06-04T11:08:27;100956.91;;;23.92;28.04
75497;BME280;64074;47.540;19.072;2023-06-04T11:11:31;100949.78;;;24.17;28.46
75497;BME280;64074;47.540;19.072;2023-06-04T11:14:35;100952.66;;;24.24;27.85
75497;BME280;64074;47.540;19.072;2023-06-04T11:17:57;100952.97;;;24.42;27.66
75497;BME280;64074;47.540;19.072;2023-06-04T11:21:02;100949.06;;;24.47;27.54
75497;BME280;64074;47.540;19.072;2023-06-04T11:24:05;100949.50;;;24.49;27.50
75497;BME280;64074;47.540;19.072;2023-06-04T11:27:08;100949.03;;;24.73;28.40
75497;BME280;64074;47.540;19.072;2023-06-04T11:30:25;100941.78;;;24.65;27.62
75497;BME280;64074;47.540;19.072;2023-06-04T11:33:45;100944.50;;;25.25;27.73
75497;BME280;64074;47.540;19.072;2023-06-04T11:36:48;100940.84;;;24.84;27.21
75497;BME280;64074;47.540;19.072;2023-06-04T11:39:52;100941.00;;;24.98;27.71
75497;BME280;64074;47.540;19.072;2023-06-04T11:42:55;100949.66;;;23.84;28.05
75497;BME280;64074;47.540;19.072;2023-06-04T11:45:58;100949.25;;;24.08;28.57
75497;BME280;64074;47.540;19.072;2023-06-04T11:49:04;100943.72;;;24.31;28.22
75497;BME280;64074;47.540;19.072;2023-06-04T11:52:07;100957.16;;;23.83;29.01
75497;BME280;64074;47.540;19.072;2023-06-04T11:55:12;100949.63;;;24.07;29.02
75497;BME280;64074;47.540;19.072;2023-06-04T11:58:15;100955.84;;;24.00;28.27
75497;BME280;64074;47.540;19.072;2023-06-04T12:01:18;100955.38;;;23.94;29.55
75497;BME280;64074;47.540;19.072;2023-06-04T12:04:21;100952.22;;;23.96;29.14
75497;BME280;64074;47.540;19.072;2023-06-04T12:07:24;100954.88;;;23.89;29.62
75497;BME280;64074;47.540;19.072;2023-06-04T12:10:27;100956.97;;;24.22;29.93
75497;BME280;64074;47.540;19.072;2023-06-04T12:13:37;100945.13;;;23.99;29.53
75497;BME280;64074;47.540;19.072;2023-06-04T12:16:39;100954.63;;;24.24;29.25
75497;BME280;64074;47.540;19.072;2023-06-04T12:19:47;100950.00;;;24.05;28.53
75497;BME280;64074;47.540;19.072;2023-06-04T12:22:53;100952.31;;;24.52;29.12
75497;BME280;64074;47.540;19.072;2023-06-04T12:25:55;100946.25;;;24.73;29.22
75497;BME280;64074;47.540;19.072;2023-06-04T12:29:13;100949.41;;;24.19;29.55
75497;BME280;64074;47.540;19.072;2023-06-04T12:32:16;100945.38;;;24.66;29.68
75497;BME280;64074;47.540;19.072;2023-06-04T12:35:20;100945.31;;;24.92;28.69
75497;BME280;64074;47.540;19.072;2023-06-04T12:38:22;100949.44;;;24.75;28.75
75497;BME280;64074;47.540;19.072;2023-06-04T12:41:28;100948.41;;;25.17;28.76
75497;BME280;64074;47.540;19.072;2023-06-04T12:44:31;100948.47;;;25.24;28.78
75497;BME280;64074;47.540;19.072;2023-06-04T12:47:37;100946.50;;;25.25;28.60
75497;BME280;64074;47.540;19.072;2023-06-04T12:50:41;100937.19;;;24.46;28.71
75497;BME280;64074;47.540;19.072;2023-06-04T12:53:44;100938.00;;;24.24;29.39
75497;BME280;64074;47.540;19.072;2023-06-04T12:56:48;100926.28;;;24.61;30.88
75497;BME280;64074;47.540;19.072;2023-06-04T12:59:51;100927.00;;;24.84;28.89
75497;BME280;64074;47.540;19.072;2023-06-04T13:02:54;100935.47;;;24.98;29.72
75497;BME280;64074;47.540;19.072;2023-06-04T13:05:58;100934.56;;;24.87;28.58
75497;BME280;64074;47.540;19.072;2023-06-04T13:09:03;100940.91;;;25.21;28.62
75497;BME280;64074;47.540;19.072;2023-06-04T13:12:12;100925.59;;;25.34;29.07
75497;BME280;64074;47.540;19.072;2023-06-04T13:15:15;100943.34;;;25.26;29.16
75497;BME280;64074;47.540;19.072;2023-06-04T13:18:21;100936.00;;;25.44;28.83
75497;BME280;64074;47.540;19.072;2023-06-04T13:21:24;100927.19;;;25.35;29.36
75497;BME280;64074;47.540;19.072;2023-06-04T13:24:28;100917.53;;;25.63;28.50
75497;BME280;64074;47.540;19.072;2023-06-04T13:27:30;100915.13;;;25.61;27.25
75497;BME280;64074;47.540;19.072;2023-06-04T13:30:36;100919.94;;;25.27;28.38
75497;BME280;64074;47.540;19.072;2023-06-04T13:33:40;100909.69;;;25.72;27.78
75497;BME280;64074;47.540;19.072;2023-06-04T13:36:44;100914.63;;;25.93;28.14
75497;BME280;64074;47.540;19.072;2023-06-04T13:39:46;100902.72;;;25.52;27.70
75497;BME280;64074;47.540;19.072;2023-06-04T13:42:49;100907.00;;;26.38;26.64
75497;BME280;64074;47.540;19.072;2023-06-04T13:45:52;100901.38;;;26.30;26.78
75497;BME280;64074;47.540;19.072;2023-06-04T13:48:55;100899.63;;;26.04;26.32
75497;BME280;64074;47.540;19.072;2023-06-04T13:52:01;100913.34;;;25.80;26.80
75497;BME280;64074;47.540;19.072;2023-06-04T13:55:04;100901.84;;;25.81;27.45
75497;BME280;64074;47.540;19.072;2023-06-04T13:58:07;100901.22;;;25.58;27.36
75497;BME280;64074;47.540;19.072;2023-06-04T14:01:10;100896.69;;;25.39;28.59
75497;BME280;64074;47.540;19.072;2023-06-04T14:04:13;100903.19;;;25.17;29.10
75497;BME280;64074;47.540;19.072;2023-06-04T14:07:17;100903.50;;;24.78;29.75
75497;BME280;64074;47.540;19.072;2023-06-04T14:10:19;100888.44;;;25.05;28.71
75497;BME280;64074;47.540;19.072;2023-06-04T14:13:22;100890.59;;;25.26;29.13
75497;BME280;64074;47.540;19.072;2023-06-04T14:16:25;100882.69;;;24.91;28.80
75497;BME280;64074;47.540;19.072;2023-06-04T14:19:28;100889.88;;;24.62;28.85
75497;BME280;64074;47.540;19.072;2023-06-04T14:22:32;100889.16;;;24.12;30.20
75497;BME280;64074;47.540;19.072;2023-06-04T14:25:35;100890.38;;;24.15;31.06
75497;BME280;64074;47.540;19.072;2023-06-04T14:28:40;100892.81;;;24.46;30.29
75497;BME280;64074;47.540;19.072;2023-06-04T14:31:45;100892.22;;;24.30;30.46
75497;BME280;64074;47.540;19.072;2023-06-04T14:34:49;100889.06;;;24.05;30.57
75497;BME280;64074;47.540;19.072;2023-06-04T14:37:51;100893.53;;;24.13;30.36
75497;BME280;64074;47.540;19.072;2023-06-04T14:40:54;100891.03;;;24.05;31.01
75497;BME280;64074;47.540;19.072;2023-06-04T14:43:59;100879.63;;;24.10;31.35
75497;BME280;64074;47.540;19.072;2023-06-04T14:47:02;100883.53;;;24.05;31.37
75497;BME280;64074;47.540;19.072;2023-06-04T14:50:06;100886.28;;;24.05;31.74
75497;BME280;64074;47.540;19.072;2023-06-04T14:53:09;100878.75;;;23.79;32.72
75497;BME280;64074;47.540;19.072;2023-06-04T14:56:12;100884.06;;;23.65;33.55
75497;BME280;64074;47.540;19.072;2023-06-04T14:59:14;100887.66;;;23.46;35.66
75497;BME280;64074;47.540;19.072;2023-06-04T15:02:19;100884.31;;;23.33;37.04
75497;BME280;64074;47.540;19.072;2023-06-04T15:05:23;100887.41;;;22.70;39.66
75497;BME280;64074;47.540;19.072;2023-06-04T15:08:26;100888.69;;;22.77;40.25
75497;BME280;64074;47.540;19.072;2023-06-04T15:11:29;100881.34;;;23.03;40.20
75497;BME280;64074;47.540;19.072;2023-06-04T15:14:32;100872.38;;;22.87;40.73
75497;BME280;64074;47.540;19.072;2023-06-04T15:17:36;100867.56;;;22.84;41.96
75497;BME280;64074;47.540;19.072;2023-06-04T15:20:39;100868.56;;;22.57;43.51
75497;BME280;64074;47.540;19.072;2023-06-04T15:23:42;100860.34;;;22.41;44.46
75497;BME280;64074;47.540;19.072;2023-06-04T15:26:46;100857.31;;;22.11;45.44
75497;BME280;64074;47.540;19.072;2023-06-04T15:29:49;100863.31;;;22.32;45.52
75497;BME280;64074;47.540;19.072;2023-06-04T15:32:52;100866.31;;;21.92;46.14
75497;BME280;64074;47.540;19.072;2023-06-04T15:35:55;100867.22;;;21.80;46.84
75497;BME280;64074;47.540;19.072;2023-06-04T15:38:58;100862.53;;;21.65;46.90
75497;BME280;64074;47.540;19.072;2023-06-04T15:42:01;100855.19;;;21.89;45.94
75497;BME280;64074;47.540;19.072;2023-06-04T15:45:05;100856.66;;;21.83;46.55
75497;BME280;64074;47.540;19.072;2023-06-04T15:48:07;100853.25;;;22.24;45.64
75497;BME280;64074;47.540;19.072;2023-06-04T15:51:11;100856.03;;;22.24;45.76
75497;BME280;64074;47.540;19.072;2023-06-04T15:54:14;100854.34;;;22.20;46.02